sim
Sign-in with your pilot id or email,
or register
Callsign
Passwort

Schedule Details

Flight Number: DLH1631
Departure: Wroclaw Copernicus Airport (EPWR) at 12:05
Arrival: Munich Airport (EDDM) at 13:10
Route: Lufthansa Passenger Schedule. Enter filed route here before submitting Pirep.

Weather Information
Getting current METAR information for EPWR 190230Z 12001KT 9999 MIFG NSC 04/03 Q1026
Getting current METAR information for EDDM 190220Z VRB02KT CAVOK 05/03 Q1021 NOSIG

Schedule Frequency

Route Map